Time;durP1;ratioP1;P1;durP2;ratioP2;P2;SDS_P1;SDS_P2;PMS_P1;PMS_P2;Temp;Humidity;BMP_temperature;BMP_pressure;BME280_temperature;BME280_humidity;BME280_pressure;Samples;Min_cycle;Max_cycle;Signal;HPM_P1;HPM_P2
2022/11/29 00:01:10;;;;;;;14.95;9.25;;;;;;;10.10;69.29;101363.25;5131226;27;20048;-60
2022/11/29 00:03:40;;;;;;;12.23;8.43;;;;;;;10.10;69.52;101360.56;5147613;27;20169;-60
2022/11/29 00:06:10;;;;;;;14.05;8.63;;;;;;;10.09;69.12;101356.22;5136715;27;20101;-60
2022/11/29 00:08:40;;;;;;;13.43;8.93;;;;;;;10.07;69.21;101359.13;5135437;27;20120;-60
2022/11/29 00:11:09;;;;;;;19.65;9.82;;;;;;;10.06;69.07;101360.16;5139126;27;20122;-60
2022/11/29 00:13:37;;;;;;;16.42;9.25;;;;;;;10.02;69.65;101358.06;5138597;27;20101;-60
2022/11/29 00:16:07;;;;;;;14.48;9.48;;;;;;;10.06;69.36;101367.38;5145147;27;20079;-60
2022/11/29 00:18:35;;;;;;;21.02;9.20;;;;;;;10.04;69.37;101367.59;5147230;27;20054;-60
2022/11/29 00:21:06;;;;;;;13.00;8.88;;;;;;;10.03;69.45;101368.63;5145497;27;20123;-60
2022/11/29 00:23:34;;;;;;;15.88;9.55;;;;;;;10.03;69.45;101373.97;5146700;27;20066;-60
2022/11/29 00:26:04;;;;;;;14.25;8.77;;;;;;;10.02;69.09;101374.19;5145459;27;20051;-60
2022/11/29 00:28:32;;;;;;;16.60;9.75;;;;;;;10.01;69.33;101376.06;5144347;27;20065;-60
2022/11/29 00:30:59;;;;;;;13.07;8.95;;;;;;;10.01;69.58;101378.72;5128744;27;20043;-60
2022/11/29 00:33:27;;;;;;;13.43;8.68;;;;;;;10.01;69.16;101378.72;5147448;27;20050;-60
2022/11/29 00:35:55;;;;;;;13.52;8.55;;;;;;;10.00;69.20;101377.09;5142402;27;20047;-59
2022/11/29 00:38:24;;;;;;;13.05;8.95;;;;;;;10.00;69.31;101376.25;5147003;27;20059;-59
2022/11/29 00:40:52;;;;;;;18.30;8.88;;;;;;;10.00;69.13;101373.56;5145934;27;20043;-60
2022/11/29 00:43:20;;;;;;;15.52;9.48;;;;;;;9.98;69.46;101379.13;5142353;27;20050;-60
2022/11/29 00:45:48;;;;;;;14.07;8.45;;;;;;;9.99;69.54;101374.59;5143674;27;20050;-60
2022/11/29 00:48:15;;;;;;;15.55;8.77;;;;;;;9.98;69.34;101375.63;5143639;27;20047;-60
2022/11/29 00:50:43;;;;;;;12.30;8.85;;;;;;;9.96;69.31;101365.09;5146705;27;20081;-60
2022/11/29 00:53:11;;;;;;;12.05;8.38;;;;;;;9.96;69.61;101365.09;5146533;27;20465;-60
2022/11/29 00:55:40;;;;;;;15.07;9.05;;;;;;;9.96;69.20;101362.41;5141775;27;20057;-60
2022/11/29 00:58:08;;;;;;;15.18;8.55;;;;;;;9.95;69.57;101368.00;5146403;27;20749;-60
2022/11/29 01:00:35;;;;;;;12.73;8.60;;;;;;;9.94;69.33;101375.22;5146814;27;20374;-60
2022/11/29 01:03:03;;;;;;;15.95;8.15;;;;;;;9.93;69.73;101370.03;5146487;27;20049;-59
2022/11/29 01:05:31;;;;;;;13.85;8.32;;;;;;;9.92;69.62;101369.22;5137572;27;20122;-60
2022/11/29 01:07:59;;;;;;;13.57;7.78;;;;;;;9.92;69.80;101376.44;5145596;27;20233;-60
2022/11/29 01:10:27;;;;;;;20.38;8.40;;;;;;;9.90;69.63;101370.47;5141558;27;20042;-60
2022/11/29 01:12:56;;;;;;;26.65;8.27;;;;;;;9.93;69.82;101378.09;5144138;27;20043;-60
2022/11/29 01:15:24;;;;;;;14.25;9.98;;;;;;;9.93;69.31;101384.28;5133510;27;20089;-60
2022/11/29 01:17:52;;;;;;;14.73;8.20;;;;;;;9.93;69.67;101376.25;5145851;27;20079;-60
2022/11/29 01:20:20;;;;;;;17.90;8.48;;;;;;;9.93;69.00;101378.09;5144536;27;20040;-60
2022/11/29 01:22:48;;;;;;;11.85;7.95;;;;;;;9.92;69.07;101385.34;5145257;27;20061;-60
2022/11/29 01:25:18;;;;;;;15.20;9.43;;;;;;;9.94;69.52;101382.44;5147503;27;20130;-60
2022/11/29 01:27:46;;;;;;;15.73;8.93;;;;;;;9.93;69.09;101389.66;5139108;27;20114;-60
2022/11/29 01:30:16;;;;;;;15.30;8.27;;;;;;;9.94;69.51;101388.63;5142244;27;20130;-60
2022/11/29 01:32:43;;;;;;;19.08;9.75;;;;;;;9.94;69.33;101385.97;5143299;27;20050;-60
2022/11/29 01:35:11;;;;;;;13.35;8.90;;;;;;;9.93;69.26;101392.34;5143843;27;20144;-60
2022/11/29 01:37:39;;;;;;;14.65;9.10;;;;;;;9.93;69.07;101388.84;5141651;27;20061;-60
2022/11/29 01:40:08;;;;;;;16.08;9.38;;;;;;;9.93;69.09;101391.53;5146460;27;20047;-60
2022/11/29 01:42:36;;;;;;;13.88;9.10;;;;;;;9.92;69.18;101393.38;5143638;27;20055;-59
2022/11/29 01:45:15;;;;;;;17.35;8.98;;;;;;;9.92;69.43;101397.94;5145380;27;20110;-60
2022/11/29 01:47:45;;;;;;;14.80;8.50;;;;;;;9.92;69.50;101400.63;5138377;27;20078;-60
2022/11/29 01:50:14;;;;;;;14.38;8.50;;;;;;;9.92;69.50;101405.97;5138792;27;20115;-60
2022/11/29 01:52:42;;;;;;;14.65;9.65;;;;;;;9.90;69.35;101418.78;5141693;27;20485;-59
2022/11/29 01:55:10;;;;;;;19.98;9.85;;;;;;;9.89;69.35;101409.06;5145943;27;20061;-59
2022/11/29 01:57:41;;;;;;;16.65;9.77;;;;;;;9.87;69.32;101414.66;5140916;27;20146;-59
2022/11/29 02:00:13;;;;;;;16.55;8.55;;;;;;;9.88;69.33;101423.53;5146064;27;20047;-59
2022/11/29 02:02:44;;;;;;;14.18;9.10;;;;;;;9.86;69.45;101418.34;5144544;27;20047;-59
2022/11/29 02:05:15;;;;;;;14.80;9.43;;;;;;;9.85;69.23;101419.38;5142686;27;20104;-59
2022/11/29 02:07:45;;;;;;;16.50;8.77;;;;;;;9.86;69.19;101422.91;5142694;27;20047;-59
2022/11/29 02:10:15;;;;;;;16.10;9.82;;;;;;;9.86;69.51;101428.28;5134703;27;20047;-59
2022/11/29 02:12:54;;;;;;;17.10;9.50;;;;;;;9.84;69.54;101428.47;5143170;27;20154;-59
2022/11/29 02:15:33;;;;;;;15.38;9.20;;;;;;;9.84;69.46;101431.16;5144749;27;20481;-60
2022/11/29 02:18:06;;;;;;;18.10;9.27;;;;;;;9.84;69.52;101431.16;5132081;27;20039;-59
2022/11/29 02:21:09;;;;;;;13.48;9.65;;;;;;;9.85;69.10;101426.63;5139649;27;20054;-59
2022/11/29 02:24:10;;;;;;;15.68;9.00;;;;;;;9.82;69.79;101435.06;5143673;27;20050;-59
2022/11/29 02:27:11;;;;;;;15.27;10.35;;;;;;;9.81;69.59;101436.94;5134584;27;20102;-59
2022/11/29 02:30:08;;;;;;;16.85;10.30;;;;;;;9.79;69.32;101434.44;5144555;27;20050;-59
2022/11/29 02:33:14;;;;;;;13.95;9.20;;;;;;;9.78;69.83;101435.47;5140646;27;20320;-59
2022/11/29 02:36:02;;;;;;;15.57;9.30;;;;;;;9.79;69.43;101439.00;5143857;27;20058;-59
2022/11/29 02:38:50;;;;;;;13.73;9.18;;;;;;;9.79;69.85;101445.19;5145190;27;20051;-59
2022/11/29 02:41:35;;;;;;;16.60;9.98;;;;;;;9.79;69.29;101439.00;5141204;27;20043;-59
2022/11/29 02:44:23;;;;;;;17.88;11.43;;;;;;;9.79;69.40;101439.00;5128686;27;20052;-59
2022/11/29 02:47:08;;;;;;;15.20;10.10;;;;;;;9.78;69.37;101435.47;5143607;27;20043;-59
2022/11/29 02:49:59;;;;;;;13.40;9.40;;;;;;;9.76;69.55;101426.81;5144480;27;20051;-59
2022/11/29 02:52:35;;;;;;;14.15;10.05;;;;;;;9.77;69.71;101441.06;5138578;27;20043;-59
2022/11/29 02:55:09;;;;;;;16.98;9.75;;;;;;;9.75;69.20;101441.25;5144524;27;20098;-60
2022/11/29 02:57:44;;;;;;;15.80;10.10;;;;;;;9.77;70.00;101449.94;5129539;27;20081;-59
2022/11/29 03:00:17;;;;;;;15.00;9.57;;;;;;;9.77;69.58;101452.63;5142905;27;20051;-59
2022/11/29 03:02:52;;;;;;;15.55;10.20;;;;;;;9.77;69.74;101454.47;5128590;27;20048;-60
2022/11/29 03:05:29;;;;;;;12.93;9.13;;;;;;;9.75;69.83;101454.69;5134336;28;20138;-59
2022/11/29 03:08:06;;;;;;;15.65;10.10;;;;;;;9.77;69.81;101451.78;5141699;27;20078;-59
2022/11/29 03:10:43;;;;;;;14.20;9.60;;;;;;;9.76;70.13;101456.31;5143989;27;20556;-59
2022/11/29 03:13:15;;;;;;;;;;;;;;;9.78;70.05;101466.88;5143116;28;20130;-59
2022/11/29 03:15:52;;;;;;;15.45;9.57;;;;;;;9.75;69.61;101454.69;5123705;28;19920;-60
2022/11/29 03:18:30;;;;;;;;;;;;;;;9.76;70.07;101463.56;5144257;27;20062;-59
2022/11/29 03:21:08;;;;;;;;;;;;;;;9.76;69.69;101469.75;5142147;27;20022;-59
2022/11/29 03:23:37;;;;;;;;;;;;;;;9.76;69.91;101468.91;5148856;27;19948;-59
2022/11/29 03:26:08;;;;;;;16.27;10.82;;;;;;;9.76;69.88;101475.13;5143729;27;19942;-59
2022/11/29 03:28:41;;;;;;;13.48;9.05;;;;;;;9.76;69.88;101475.13;5140384;27;20146;-59
2022/11/29 03:31:15;;;;;;;18.08;10.25;;;;;;;9.73;69.79;101474.69;5147158;27;20039;-58
2022/11/29 03:33:52;;;;;;;13.35;10.10;;;;;;;9.77;69.70;101484.00;5148459;27;20043;-59
2022/11/29 03:36:31;;;;;;;13.68;9.70;;;;;;;9.76;69.97;101485.84;5143802;27;20130;-60
2022/11/29 03:39:03;;;;;;;13.80;10.07;;;;;;;9.69;70.08;101476.94;5128714;28;20044;-59
2022/11/29 03:41:37;;;;;;;14.70;10.00;;;;;;;9.76;69.78;101488.53;5141126;27;20067;-59
2022/11/29 03:44:11;;;;;;;15.23;10.15;;;;;;;9.75;69.80;101486.06;5136737;27;20411;-59
2022/11/29 03:46:46;;;;;;;13.73;10.13;;;;;;;9.75;70.05;101494.94;5138213;27;20049;-59
2022/11/29 03:49:20;;;;;;;13.95;10.48;;;;;;;9.74;69.78;101497.81;5148104;27;20110;-59
2022/11/29 03:51:58;;;;;;;14.23;10.95;;;;;;;9.74;69.85;101489.78;5139767;27;20043;-59
2022/11/29 03:54:29;;;;;;;13.45;10.27;;;;;;;9.73;70.41;101488.13;5143239;27;20126;-59
2022/11/29 03:56:57;;;;;;;14.23;9.45;;;;;;;9.71;69.97;101491.00;5147422;27;20055;-59
2022/11/29 03:59:37;;;;;;;14.75;9.70;;;;;;;9.71;70.37;101491.00;5137427;27;20429;-59
2022/11/29 04:02:31;;;;;;;16.65;11.75;;;;;;;9.71;70.19;101498.22;5144502;27;20130;-59
2022/11/29 04:05:35;;;;;;;15.02;10.70;;;;;;;9.69;70.10;101501.09;5088789;27;20469;-59
2022/11/29 04:08:32;;;;;;;17.70;10.82;;;;;;;9.68;70.70;101504.00;5144407;27;20081;-59
2022/11/29 04:11:23;;;;;;;16.77;10.95;;;;;;;9.68;70.20;101507.50;5146964;27;20053;-59
2022/11/29 04:14:27;;;;;;;16.92;11.80;;;;;;;9.69;70.51;101508.34;5139474;27;20047;-59
2022/11/29 04:17:32;;;;;;;15.48;10.52;;;;;;;9.68;70.19;101507.50;5143472;27;20070;-59
2022/11/29 04:20:25;;;;;;;15.52;10.65;;;;;;;9.68;70.18;101510.19;5143947;27;20471;-60
2022/11/29 04:23:17;;;;;;;18.83;11.10;;;;;;;9.68;70.04;101512.03;5146176;27;20420;-59
2022/11/29 04:26:24;;;;;;;18.13;11.80;;;;;;;9.61;70.67;101506.63;5143744;27;20580;-59
2022/11/29 04:29:15;;;;;;;13.98;10.75;;;;;;;9.64;70.37;101516.97;5117506;27;20381;-61
2022/11/29 04:32:02;;;;;;;13.30;10.35;;;;;;;9.64;70.30;101516.97;5145791;27;20058;-59
2022/11/29 04:34:50;;;;;;;16.08;11.20;;;;;;;9.63;70.53;101515.31;5137737;27;20058;-59
2022/11/29 04:37:45;;;;;;;14.50;10.35;;;;;;;9.62;70.12;101519.03;5146213;27;20061;-59
2022/11/29 04:40:26;;;;;;;16.33;10.98;;;;;;;9.61;70.34;101522.75;5141075;27;20065;-59
2022/11/29 04:43:10;;;;;;;15.10;10.35;;;;;;;9.61;70.55;101527.28;5145672;27;20043;-58
2022/11/29 04:46:10;;;;;;;15.90;11.50;;;;;;;9.61;70.38;101525.44;5146807;27;20043;-59
2022/11/29 04:48:51;;;;;;;16.48;10.73;;;;;;;9.61;70.31;101533.47;5133864;27;20055;-60
2022/11/29 04:51:31;;;;;;;14.85;10.40;;;;;;;9.61;70.60;101533.47;5144821;27;20043;-58
2022/11/29 04:54:08;;;;;;;15.93;11.32;;;;;;;9.61;70.66;101536.16;5140930;27;20046;-59
2022/11/29 04:56:42;;;;;;;15.23;10.63;;;;;;;9.62;70.30;101537.81;5145015;27;20045;-59
2022/11/29 04:59:18;;;;;;;13.63;10.05;;;;;;;9.62;70.83;101537.00;5138390;27;20047;-60
2022/11/29 05:01:58;;;;;;;14.27;10.60;;;;;;;9.63;70.64;101541.34;5137005;27;20039;-60
2022/11/29 05:04:36;;;;;;;15.68;10.95;;;;;;;9.63;70.47;101541.34;5143992;27;20052;-59
2022/11/29 05:07:10;;;;;;;17.40;10.93;;;;;;;9.60;70.07;101533.69;5143881;27;20118;-59
2022/11/29 05:09:49;;;;;;;16.42;11.05;;;;;;;9.63;70.19;101552.06;5147430;27;20469;-59
2022/11/29 05:12:23;;;;;;;15.38;10.82;;;;;;;9.63;70.55;101550.22;5147059;27;20043;-59
2022/11/29 05:15:14;;;;;;;17.50;11.25;;;;;;;9.64;70.32;101559.09;5130642;27;20234;-57
2022/11/29 05:17:55;;;;;;;16.42;10.75;;;;;;;9.63;70.47;101560.94;5128462;27;20053;-59
2022/11/29 05:20:34;;;;;;;15.82;10.68;;;;;;;9.63;70.71;101560.94;5147294;27;20053;-59
2022/11/29 05:23:23;;;;;;;15.00;11.30;;;;;;;9.63;70.55;101558.25;5144558;27;20130;-59
2022/11/29 05:25:57;;;;;;;16.58;11.07;;;;;;;9.62;70.08;101564.66;5135269;27;20065;-59
2022/11/29 05:28:33;;;;;;;15.10;10.40;;;;;;;9.62;70.54;101564.66;5142720;27;20134;-60
2022/11/29 05:31:19;;;;;;;16.33;10.55;;;;;;;9.63;70.08;101569.00;5146002;27;20047;-60
2022/11/29 05:34:18;;;;;;;16.17;10.70;;;;;;;9.63;70.25;101568.16;5143514;27;20064;-60
2022/11/29 05:36:55;;;;;;;17.40;11.07;;;;;;;9.62;70.51;101574.56;5141133;27;20165;-59
2022/11/29 05:39:39;;;;;;;16.73;10.98;;;;;;;9.61;70.21;101572.91;5146943;27;20055;-59
2022/11/29 05:42:35;;;;;;;15.82;11.35;;;;;;;9.61;70.19;101578.28;5142809;27;20051;-59
2022/11/29 05:45:12;;;;;;;16.65;11.23;;;;;;;9.59;69.81;101574.97;5132763;27;20144;-59
2022/11/29 05:47:49;;;;;;;13.23;9.90;;;;;;;9.59;70.14;101585.69;5145098;27;20110;-59
2022/11/29 05:50:26;;;;;;;16.65;10.18;;;;;;;9.57;70.39;101588.56;5141909;27;20049;-59
2022/11/29 05:53:01;;;;;;;18.75;11.27;;;;;;;9.55;70.74;101592.47;5143590;27;20047;-59
2022/11/29 05:55:40;;;;;;;17.05;11.00;;;;;;;9.55;70.56;101595.16;5144346;27;20126;-60
2022/11/29 05:58:16;;;;;;;16.95;11.20;;;;;;;9.54;70.29;101601.56;5139918;27;20054;-60
2022/11/29 06:00:49;;;;;;;15.63;10.80;;;;;;;9.54;70.62;101605.06;5143013;27;20046;-60
2022/11/29 06:03:29;;;;;;;18.52;11.27;;;;;;;9.54;70.49;101614.97;5139920;27;20331;-61
2022/11/29 06:06:00;;;;;;;17.38;11.13;;;;;;;9.55;70.46;101619.31;5141359;27;20143;-60
2022/11/29 06:08:36;;;;;;;18.70;12.20;;;;;;;9.53;70.29;101618.69;5129434;27;20126;-60
2022/11/29 06:11:13;;;;;;;15.85;10.60;;;;;;;9.52;70.41;101631.28;5143026;27;20125;-61
2022/11/29 06:13:50;;;;;;;17.02;10.23;;;;;;;9.49;70.39;101628.16;5144070;27;20047;-62
2022/11/29 06:16:55;;;;;;;19.27;11.57;;;;;;;9.51;70.36;101639.50;5142858;27;20111;-61
2022/11/29 06:20:03;;;;;;;19.08;12.15;;;;;;;9.52;70.26;101649.22;5139608;27;20130;-61
2022/11/29 06:22:51;;;;;;;18.52;11.60;;;;;;;9.50;70.24;101648.59;5139201;27;20073;-60
2022/11/29 06:25:37;;;;;;;17.25;10.27;;;;;;;9.49;70.51;101661.19;4786557;27;10000514;-60
2022/11/29 06:28:26;;;;;;;18.80;10.73;;;;;;;9.50;70.66;101657.47;5130261;27;20112;-61
2022/11/29 06:31:00;;;;;;;22.35;11.90;;;;;;;9.50;70.76;101668.19;5138484;27;20067;-63
2022/11/29 06:33:38;;;;;;;16.88;10.63;;;;;;;9.49;70.29;101665.72;5138907;27;20035;-61
2022/11/29 06:36:15;;;;;;;16.92;11.40;;;;;;;9.50;70.66;101672.72;5142267;27;20583;-60
2022/11/29 06:38:43;;;;;;;17.88;10.43;;;;;;;9.50;70.30;101672.72;5128946;27;20043;-62
2022/11/29 06:41:17;;;;;;;19.85;11.32;;;;;;;9.49;70.32;101674.59;5142108;27;20103;-65
2022/11/29 06:43:45;;;;;;;20.35;11.32;;;;;;;9.49;70.23;101673.75;5143686;27;20042;-59
2022/11/29 06:46:23;;;;;;;19.60;11.00;;;;;;;9.48;70.88;101672.94;5137026;27;20055;-60
2022/11/29 06:48:56;;;;;;;19.40;11.70;;;;;;;9.47;70.50;101679.31;5141866;27;20128;-60
2022/11/29 06:51:36;;;;;;;18.55;10.48;;;;;;;9.48;70.35;101680.16;5145182;27;20403;-60
2022/11/29 06:54:18;;;;;;;15.00;9.65;;;;;;;9.48;70.51;101685.50;5129293;27;20519;-60
2022/11/29 06:56:55;;;;;;;15.23;10.38;;;;;;;9.48;70.40;101686.34;5120468;28;20051;-61
2022/11/29 06:59:38;;;;;;;19.58;10.45;;;;;;;9.48;70.44;101680.97;5121121;28;20048;-60
2022/11/29 07:02:34;;;;;;;15.00;10.02;;;;;;;9.50;70.44;101688.84;5136763;27;20130;-59
2022/11/29 07:05:12;;;;;;;16.95;10.98;;;;;;;9.51;70.05;101702.06;5129391;27;20115;-59
2022/11/29 07:07:42;;;;;;;16.25;10.32;;;;;;;9.49;70.75;101701.41;5139839;27;20061;-60
2022/11/29 07:10:16;;;;;;;18.17;10.88;;;;;;;9.49;70.86;101706.78;5135775;27;20149;-59
2022/11/29 07:12:44;;;;;;;18.27;10.50;;;;;;;9.48;70.85;101699.75;5144532;27;20058;-59
2022/11/29 07:15:17;;;;;;;19.40;11.07;;;;;;;9.46;70.79;101705.31;5141011;27;20047;-60
2022/11/29 07:18:10;;;;;;;20.77;10.88;;;;;;;9.45;70.41;101708.19;5141190;28;20046;-60
2022/11/29 07:20:43;;;;;;;17.58;10.30;;;;;;;9.46;70.36;101704.50;5136100;28;20054;-59
2022/11/29 07:23:28;;;;;;;18.45;10.60;;;;;;;9.47;70.26;101714.19;5140283;28;20047;-59
2022/11/29 07:26:08;;;;;;;20.38;10.77;;;;;;;9.48;70.89;101720.41;5136587;28;20066;-59
2022/11/29 07:28:54;;;;;;;16.38;10.43;;;;;;;9.48;70.33;101713.19;5141055;28;20055;-59
2022/11/29 07:31:34;;;;;;;15.55;9.18;;;;;;;9.50;70.36;101708.44;5130783;28;20210;-59
2022/11/29 07:34:13;;;;;;;18.42;10.25;;;;;;;9.49;70.85;101717.53;5138279;27;20092;-60
2022/11/29 07:36:49;;;;;;;17.52;11.07;;;;;;;9.49;70.23;101730.09;5139050;28;20047;-59
2022/11/29 07:39:29;;;;;;;15.05;10.43;;;;;;;9.48;70.95;101736.50;5140521;28;20064;-60
2022/11/29 07:42:05;;;;;;;20.38;11.07;;;;;;;9.48;71.09;101731.13;5130571;28;20567;-59
2022/11/29 07:44:38;;;;;;;17.45;10.85;;;;;;;9.49;70.58;101738.16;5141244;28;20083;-60
2022/11/29 07:47:08;;;;;;;18.17;11.48;;;;;;;9.46;70.42;101739.38;5136966;28;20103;-60
2022/11/29 07:49:36;;;;;;;20.63;11.93;;;;;;;9.46;70.52;101748.25;5141357;28;20051;-60
2022/11/29 07:52:04;;;;;;;19.35;10.48;;;;;;;9.48;70.97;101745.38;5134543;28;20089;-58
2022/11/29 07:54:33;;;;;;;20.05;11.20;;;;;;;9.48;70.53;101750.75;5120602;28;20140;-58
2022/11/29 07:57:00;;;;;;;19.00;11.38;;;;;;;9.48;70.48;101747.22;5133203;28;20489;-59
2022/11/29 07:59:28;;;;;;;19.58;12.10;;;;;;;9.46;70.93;101747.41;5140337;28;20135;-59
2022/11/29 08:01:56;;;;;;;19.75;11.93;;;;;;;9.46;70.37;101750.94;5140120;28;20055;-59
2022/11/29 08:04:24;;;;;;;19.27;11.32;;;;;;;9.46;70.24;101753.63;5123188;28;20054;-59
2022/11/29 08:06:51;;;;;;;18.98;11.45;;;;;;;9.45;70.93;101757.31;5138957;27;20057;-60
2022/11/29 08:09:19;;;;;;;17.80;11.05;;;;;;;9.45;70.39;101761.84;5140742;27;20068;-59
2022/11/29 08:11:48;;;;;;;16.60;11.50;;;;;;;9.45;70.85;101761.84;5145097;27;20051;-60
2022/11/29 08:14:16;;;;;;;17.98;11.50;;;;;;;9.47;70.74;101765.19;5144925;27;20058;-60
2022/11/29 08:16:44;;;;;;;22.10;12.80;;;;;;;9.56;70.00;101755.97;5142493;27;20062;-60
2022/11/29 08:19:12;;;;;;;17.23;10.65;;;;;;;9.68;70.16;101762.47;5144504;27;20051;-60
2022/11/29 08:21:43;;;;;;;18.15;11.82;;;;;;;9.83;69.63;101761.56;5143726;27;20106;-61
2022/11/29 08:24:10;;;;;;;16.42;11.18;;;;;;;9.99;68.89;101761.28;5142233;27;20074;-60
2022/11/29 08:26:38;;;;;;;16.95;11.23;;;;;;;10.15;68.36;101763.66;5137320;27;20073;-59
2022/11/29 08:29:08;;;;;;;18.08;10.63;;;;;;;10.27;67.56;101763.97;5144428;27;20059;-61
2022/11/29 08:31:37;;;;;;;18.75;11.27;;;;;;;10.48;67.15;101757.66;5132176;27;20047;-60
2022/11/29 08:34:06;;;;;;;17.42;9.82;;;;;;;10.64;66.47;101757.31;5132481;27;20042;-60
2022/11/29 08:36:34;;;;;;;16.50;10.68;;;;;;;10.79;65.90;101762.56;5143713;27;20054;-60
2022/11/29 08:39:01;;;;;;;17.50;10.68;;;;;;;10.89;65.48;101766.53;5143555;27;20054;-60
2022/11/29 08:41:36;;;;;;;18.45;10.13;;;;;;;11.04;64.93;101769.91;5139452;27;20051;-61
2022/11/29 08:44:04;;;;;;;15.48;10.45;;;;;;;11.15;64.73;101773.88;5125702;27;20052;-59
2022/11/29 08:49:19;;;;;;;15.80;10.20;;;;;;;11.32;64.10;101775.16;5142025;27;20051;-59
2022/11/29 08:51:47;;;;;;;18.05;10.65;;;;;;;11.36;64.12;101784.47;5142871;27;20055;-59
2022/11/29 08:54:14;;;;;;;14.43;9.70;;;;;;;11.37;63.89;101782.59;5123193;28;20377;-60
2022/11/29 08:56:41;;;;;;;15.90;10.52;;;;;;;11.39;63.83;101778.69;5129476;27;20082;-61
2022/11/29 08:59:29;;;;;;;16.35;10.07;;;;;;;11.45;63.70;101789.66;5143879;27;20058;-60
2022/11/29 09:01:58;;;;;;;13.45;9.50;;;;;;;11.48;63.61;101783.88;5136286;27;20471;-60
2022/11/29 09:04:26;;;;;;;14.80;10.05;;;;;;;11.47;63.49;101793.81;5144363;27;20356;-61
2022/11/29 09:06:54;;;;;;;15.15;9.55;;;;;;;11.50;63.51;101788.00;5128596;27;20521;-61
2022/11/29 09:09:21;;;;;;;14.43;9.45;;;;;;;11.51;63.61;101784.28;5141576;27;20481;-61
2022/11/29 09:11:49;;;;;;;17.15;9.57;;;;;;;11.54;63.45;101791.13;5142806;27;20051;-60
2022/11/29 09:14:18;;;;;;;16.67;8.88;;;;;;;11.54;63.51;101791.97;5131688;27;20047;-60
2022/11/29 09:16:46;;;;;;;14.85;9.95;;;;;;;11.58;63.37;101793.22;5140535;27;20138;-61
2022/11/29 09:19:15;;;;;;;17.35;10.15;;;;;;;11.63;63.35;101797.97;5132521;27;20108;-61
2022/11/29 09:21:43;;;;;;;15.57;9.70;;;;;;;11.60;63.18;101796.53;5133916;27;20047;-61
2022/11/29 09:24:11;;;;;;;15.30;9.45;;;;;;;11.62;63.31;101799.00;5143537;27;20047;-61
2022/11/29 09:26:40;;;;;;;23.60;11.30;;;;;;;11.62;63.21;101804.41;5143669;27;20070;-61
2022/11/29 09:29:09;;;;;;;18.00;10.27;;;;;;;11.63;63.22;101800.66;5135883;27;20044;-61
2022/11/29 09:31:36;;;;;;;19.30;10.52;;;;;;;11.65;63.47;101802.13;5129503;27;20067;-61
2022/11/29 09:34:04;;;;;;;17.23;10.07;;;;;;;11.65;63.43;101804.81;5145177;27;20045;-61
2022/11/29 09:36:33;;;;;;;18.80;10.57;;;;;;;11.67;63.37;101812.69;5145640;27;20039;-61
2022/11/29 09:39:02;;;;;;;22.27;10.20;;;;;;;11.58;63.49;101813.91;5126557;27;20048;-59
2022/11/29 09:41:51;;;;;;;19.35;10.30;;;;;;;11.41;64.10;101826.94;5128091;27;20075;-60
2022/11/29 09:44:26;;;;;;;20.05;10.85;;;;;;;11.20;64.74;101827.91;5137016;27;20043;-60
2022/11/29 09:47:03;;;;;;;17.75;10.25;;;;;;;11.00;65.58;101827.81;5145372;27;20051;-60
2022/11/29 09:49:50;;;;;;;;;;;;;;;10.83;66.35;101825.66;5145808;27;20051;-60
2022/11/29 09:52:33;;;;;;;26.75;11.57;;;;;;;10.69;66.77;101833.66;5124841;28;19945;-60
2022/11/29 09:55:16;;;;;;;21.90;11.30;;;;;;;10.59;67.49;101832.38;5139122;27;20057;-60
2022/11/29 09:57:45;;;;;;;23.83;12.13;;;;;;;10.50;67.95;101839.75;5146812;27;20054;-61
2022/11/29 10:00:15;;;;;;;21.30;11.70;;;;;;;10.41;68.15;101839.06;5145717;27;20042;-60
2022/11/29 10:02:48;;;;;;;24.38;13.45;;;;;;;10.34;68.19;101834.72;5137565;27;20061;-61
2022/11/29 10:05:21;;;;;;;23.83;12.00;;;;;;;10.27;68.64;101836.53;5146941;27;20138;-61
2022/11/29 10:07:56;;;;;;;23.25;12.13;;;;;;;10.24;69.09;101847.66;5140341;27;20127;-61
2022/11/29 10:10:28;;;;;;;21.08;11.50;;;;;;;10.21;68.72;101835.44;5126038;28;20413;-59
2022/11/29 10:13:05;;;;;;;25.15;11.30;;;;;;;10.19;69.18;101844.69;5125978;28;20062;-61
2022/11/29 10:15:39;;;;;;;25.00;12.82;;;;;;;10.18;69.25;101846.56;5142349;27;20068;-61
2022/11/29 10:18:18;;;;;;;20.50;11.65;;;;;;;10.28;68.63;101846.25;5132426;27;20054;-60
2022/11/29 10:20:49;;;;;;;19.98;11.15;;;;;;;10.44;68.47;101849.44;5143786;27;20579;-61
2022/11/29 10:23:23;;;;;;;22.27;11.00;;;;;;;10.62;67.56;101840.88;5146205;27;20043;-60
2022/11/29 10:25:53;;;;;;;21.83;11.98;;;;;;;10.80;67.13;101842.19;5143501;27;20054;-59
2022/11/29 10:28:24;;;;;;;23.73;12.77;;;;;;;10.92;66.89;101838.75;5145423;27;20177;-60
2022/11/29 10:30:54;;;;;;;18.95;10.90;;;;;;;11.04;66.53;101841.69;5144472;27;20452;-60
2022/11/29 10:33:25;;;;;;;20.85;11.18;;;;;;;11.12;66.01;101827.25;5141236;27;20070;-60
2022/11/29 10:35:57;;;;;;;23.08;11.18;;;;;;;11.29;65.57;101833.94;5124482;28;20143;-58
2022/11/29 10:38:26;;;;;;;24.98;12.32;;;;;;;11.31;65.45;101834.56;5125786;28;20050;-60
2022/11/29 10:41:04;;;;;;;21.85;11.20;;;;;;;11.23;65.45;101840.13;5129001;27;20058;-59
2022/11/29 10:43:32;;;;;;;20.65;11.20;;;;;;;11.06;66.07;101835.09;5135740;27;20047;-60
2022/11/29 10:46:01;;;;;;;18.50;10.82;;;;;;;10.94;66.58;101833.16;5145197;27;20507;-59
2022/11/29 10:48:32;;;;;;;22.80;11.75;;;;;;;10.79;67.30;101832.47;5134843;27;20051;-59
2022/11/29 10:51:02;;;;;;;19.75;11.48;;;;;;;10.67;67.62;101841.09;5137374;27;20074;-60
2022/11/29 10:53:35;;;;;;;19.85;11.50;;;;;;;10.57;68.12;101835.25;5144092;27;20107;-60
2022/11/29 10:56:13;;;;;;;23.45;13.35;;;;;;;10.50;68.31;101837.06;5125260;28;20075;-60
2022/11/29 10:58:55;;;;;;;22.55;12.65;;;;;;;10.43;68.75;101833.50;5134753;27;20047;-59
2022/11/29 11:01:25;;;;;;;22.67;12.13;;;;;;;10.38;68.65;101842.19;5144915;27;20047;-59
2022/11/29 11:03:55;;;;;;;21.85;11.52;;;;;;;10.34;68.84;101838.22;5127688;27;20065;-60
2022/11/29 11:06:26;;;;;;;21.27;11.20;;;;;;;10.31;69.17;101837.78;5124123;28;20039;-60
2022/11/29 11:08:57;;;;;;;20.60;12.32;;;;;;;10.28;69.40;101838.19;5125375;28;20067;-59
2022/11/29 11:11:29;;;;;;;19.48;11.93;;;;;;;10.22;69.31;101839.78;5124748;28;20054;-60
2022/11/29 11:14:01;;;;;;;21.85;11.45;;;;;;;10.17;69.51;101842.19;5128117;27;20055;-60
2022/11/29 11:16:29;;;;;;;21.02;11.73;;;;;;;10.12;69.96;101847.31;5144788;27;20058;-60
2022/11/29 11:19:25;;;;;;;22.83;12.57;;;;;;;10.08;70.04;101836.13;5142934;28;20058;-60
2022/11/29 11:21:53;;;;;;;22.08;13.50;;;;;;;10.06;70.59;101848.09;5139675;28;20054;-60
2022/11/29 11:24:25;;;;;;;23.23;12.18;;;;;;;10.04;70.26;101847.47;5127449;28;20107;-60
2022/11/29 11:26:52;;;;;;;21.90;13.55;;;;;;;10.01;70.62;101856.75;5137699;28;20133;-60
2022/11/29 11:29:25;;;;;;;23.52;12.32;;;;;;;9.98;70.71;101857.13;5145311;28;20050;-60
2022/11/29 11:31:55;;;;;;;26.63;13.27;;;;;;;10.04;70.47;101850.16;5143802;28;20057;-60
2022/11/29 11:34:32;;;;;;;20.27;12.88;;;;;;;10.15;70.33;101860.38;5136335;28;20168;-60
2022/11/29 11:37:20;;;;;;;21.90;11.90;;;;;;;10.17;70.01;101852.13;5144549;28;20047;-60
2022/11/29 11:39:51;;;;;;;25.77;13.38;;;;;;;10.18;69.84;101857.28;5148155;27;20098;-60
2022/11/29 11:42:36;;;;;;;24.73;13.85;;;;;;;10.15;69.88;101857.69;5148412;27;20134;-60
2022/11/29 11:45:20;;;;;;;23.90;13.60;;;;;;;10.10;70.28;101858.25;5128760;28;20112;-60
2022/11/29 11:47:51;;;;;;;22.17;12.75;;;;;;;10.09;70.04;101869.19;5136123;27;20066;-61
2022/11/29 11:50:28;;;;;;;22.33;13.35;;;;;;;10.17;70.23;101874.44;5141100;27;20077;-61
2022/11/29 11:52:58;;;;;;;21.73;13.55;;;;;;;10.32;69.37;101880.59;5128402;27;20050;-68
2022/11/29 11:55:33;;;;;;;25.65;14.15;;;;;;;10.50;68.91;101871.19;5145233;27;20070;-60
2022/11/29 11:58:03;;;;;;;22.83;13.23;;;;;;;10.68;68.00;101872.34;5149382;27;20074;-60
2022/11/29 12:00:42;;;;;;;22.85;12.95;;;;;;;10.87;67.56;101880.72;5143573;27;20051;-61